Time;durP1;ratioP1;P1;durP2;ratioP2;P2;SDS_P1;SDS_P2;PMS_P1;PMS_P2;Temp;Humidity;BMP_temperature;BMP_pressure;BME280_temperature;BME280_humidity;BME280_pressure;Samples;Min_cycle;Max_cycle;Signal;HPM_P1;HPM_P2
2022/02/18 00:01:52;;;;;;;19.02;8.75;;;;;;;-8.33;67.47;100148.16;4997963;28;20042;-87
2022/02/18 00:04:18;;;;;;;18.38;9.32;;;;;;;-8.23;67.33;100150.84;4984660;28;20050;-82
2022/02/18 00:06:44;;;;;;;22.85;9.75;;;;;;;-8.29;66.50;100151.66;5000057;28;20051;-83
2022/02/18 00:09:10;;;;;;;21.02;10.55;;;;;;;-8.35;66.49;100146.41;4986269;28;20053;-83
2022/02/18 00:11:36;;;;;;;21.02;8.93;;;;;;;-8.38;66.39;100147.28;4974551;28;20070;-86
2022/02/18 00:14:02;;;;;;;27.67;11.15;;;;;;;-8.47;66.57;100149.78;4952803;28;20078;-86
2022/02/18 00:16:28;;;;;;;23.13;10.23;;;;;;;-8.41;66.53;100162.81;4964003;28;20121;-88
2022/02/18 00:18:54;;;;;;;19.20;9.80;;;;;;;-8.42;66.27;100150.72;4966446;28;20066;-87
2022/02/18 00:21:20;;;;;;;16.38;8.05;;;;;;;-8.39;66.26;100149.84;4981522;28;20498;-86
2022/02/18 00:23:46;;;;;;;24.15;11.32;;;;;;;-8.46;66.20;100166.19;4979467;28;20058;-87
2022/02/18 00:26:12;;;;;;;22.48;9.55;;;;;;;-8.49;66.31;100153.25;4960900;28;20051;-86
2022/02/18 00:28:38;;;;;;;19.40;9.23;;;;;;;-8.53;66.33;100161.84;4975075;28;20065;-87
2022/02/18 00:31:04;;;;;;;17.20;8.93;;;;;;;-8.59;66.64;100158.31;4959163;28;20042;-86
2022/02/18 00:33:30;;;;;;;13.52;7.00;;;;;;;-8.60;66.58;100153.13;4975259;28;20046;-86
2022/02/18 00:35:57;;;;;;;20.63;9.95;;;;;;;-8.58;66.75;100159.19;4975753;28;20054;-86
2022/02/18 00:38:23;;;;;;;21.25;10.48;;;;;;;-8.52;66.64;100163.56;4974988;28;20137;-87
2022/02/18 00:40:49;;;;;;;18.23;8.80;;;;;;;-8.52;66.63;100163.56;4975353;28;20402;-86
2022/02/18 00:43:17;;;;;;;15.18;8.40;;;;;;;-8.58;66.92;100170.41;4975139;28;20057;-85
2022/02/18 00:45:43;;;;;;;14.82;8.80;;;;;;;-8.62;66.93;100176.41;4974826;28;20050;-86
2022/02/18 00:48:09;;;;;;;14.45;7.88;;;;;;;-8.71;67.35;100178.06;4974576;28;20051;-86
2022/02/18 00:50:35;;;;;;;18.38;8.70;;;;;;;-8.72;67.27;100173.75;4975237;28;20092;-86
2022/02/18 00:53:02;;;;;;;26.70;11.30;;;;;;;-8.66;67.71;100177.25;4958732;28;20046;-85
2022/02/18 00:55:28;;;;;;;15.13;8.57;;;;;;;-8.73;67.24;100170.25;4974663;28;20054;-85
2022/02/18 00:57:54;;;;;;;25.02;11.85;;;;;;;-8.64;67.60;100183.31;4974398;28;20581;-85
2022/02/18 01:00:21;;;;;;;16.13;7.05;;;;;;;-8.70;67.54;100175.47;4958774;28;20133;-85
2022/02/18 01:02:47;;;;;;;19.60;8.98;;;;;;;-8.63;67.37;100174.69;4974869;28;20055;-87
2022/02/18 01:05:13;;;;;;;12.10;7.32;;;;;;;-8.67;67.41;100170.34;4974338;28;20052;-87
2022/02/18 01:07:42;;;;;;;14.15;7.68;;;;;;;-8.62;67.04;100189.38;4959218;28;20101;-88
2022/02/18 01:10:08;;;;;;;23.73;9.48;;;;;;;-8.74;67.38;100183.22;4974352;28;20502;-87
2022/02/18 01:12:39;;;;;;;14.50;7.57;;;;;;;-8.79;67.51;100184.88;4943633;28;20039;-89
2022/02/18 01:15:06;;;;;;;19.35;8.23;;;;;;;-8.84;67.66;100190.00;4958581;28;20067;-86
2022/02/18 01:17:33;;;;;;;20.88;9.45;;;;;;;-8.81;68.00;100171.91;4958970;28;20406;-87
2022/02/18 01:19:59;;;;;;;15.75;7.35;;;;;;;-8.75;68.01;100190.13;4958538;28;20065;-88
2022/02/18 01:22:25;;;;;;;20.70;10.13;;;;;;;-8.81;68.17;100184.84;4957955;28;20042;-88
2022/02/18 01:24:51;;;;;;;21.88;10.23;;;;;;;-8.74;67.98;100188.38;4958036;28;20137;-87
2022/02/18 01:27:17;;;;;;;18.13;8.35;;;;;;;-8.70;68.02;100184.97;4957944;28;20049;-88
2022/02/18 01:29:43;;;;;;;20.33;9.82;;;;;;;-8.74;68.11;100181.47;4958055;28;20077;-87
2022/02/18 01:32:11;;;;;;;16.40;8.30;;;;;;;-8.68;68.06;100178.97;4942010;28;20049;-88
2022/02/18 01:34:37;;;;;;;22.08;9.77;;;;;;;-8.66;68.02;100187.63;4926024;28;20074;-86
2022/02/18 01:37:04;;;;;;;20.83;9.68;;;;;;;-8.70;68.27;100183.25;4957683;28;20409;-87
2022/02/18 01:39:30;;;;;;;27.58;10.75;;;;;;;-8.65;68.40;100184.19;4973267;28;20047;-86
2022/02/18 01:41:56;;;;;;;20.73;9.57;;;;;;;-8.60;68.23;100182.50;4958270;28;20050;-87
2022/02/18 01:44:39;;;;;;;24.90;9.77;;;;;;;-8.45;68.33;100186.13;4974101;28;20065;-87
2022/02/18 01:47:20;;;;;;;19.08;9.55;;;;;;;-8.38;67.62;100182.72;4960464;28;20046;-87
2022/02/18 01:49:46;;;;;;;19.35;8.48;;;;;;;-8.39;67.56;100186.16;4943379;28;20137;-87
2022/02/18 01:52:14;;;;;;;20.80;7.25;;;;;;;-8.50;67.55;100180.84;4941966;28;20482;-87
2022/02/18 01:54:40;;;;;;;19.50;9.57;;;;;;;-8.51;67.67;100179.13;4958244;28;20383;-87
2022/02/18 01:57:07;;;;;;;16.10;8.48;;;;;;;-8.47;67.78;100193.84;4957877;28;20054;-89
2022/02/18 01:59:33;;;;;;;25.38;11.13;;;;;;;-8.52;67.82;100174.81;4942482;28;20053;-89
2022/02/18 02:01:59;;;;;;;25.85;9.48;;;;;;;-8.60;67.99;100179.03;4975265;28;20049;-88
2022/02/18 02:04:29;;;;;;;25.98;10.57;;;;;;;-8.60;68.71;100192.88;4958151;28;20043;-87
2022/02/18 02:06:57;;;;;;;25.38;10.23;;;;;;;-8.60;68.50;100189.41;4973591;28;20046;-85
2022/02/18 02:09:23;;;;;;;21.30;11.05;;;;;;;-8.59;68.56;100189.41;4927531;28;20512;-90
2022/02/18 02:11:50;;;;;;;26.63;12.20;;;;;;;-8.49;68.65;100189.53;4942173;28;20057;-89
2022/02/18 02:14:17;;;;;;;21.83;10.02;;;;;;;-8.50;68.65;100187.78;4942168;28;20070;-89
2022/02/18 02:16:43;;;;;;;24.52;11.55;;;;;;;-8.50;68.62;100191.22;4925781;28;20470;-88
2022/02/18 02:19:09;;;;;;;25.25;11.98;;;;;;;-8.43;68.58;100174.03;4926077;28;20138;-88
2022/02/18 02:21:35;;;;;;;20.73;9.63;;;;;;;-8.43;68.29;100171.44;4975128;28;20132;-88
2022/02/18 02:24:01;;;;;;;19.13;9.05;;;;;;;-8.48;68.49;100175.72;4941469;28;20066;-88
2022/02/18 02:26:31;;;;;;;21.95;10.57;;;;;;;-8.49;68.81;100173.97;4944613;28;20144;-89
2022/02/18 02:28:58;;;;;;;26.70;11.60;;;;;;;-8.52;69.15;100177.41;4943823;28;20043;-85
2022/02/18 02:31:25;;;;;;;31.33;11.32;;;;;;;-8.49;69.19;100171.38;4974980;28;20565;-88
2022/02/18 02:33:53;;;;;;;21.88;9.25;;;;;;;-8.41;69.28;100167.13;4927437;28;20082;-88
2022/02/18 02:36:20;;;;;;;32.30;14.02;;;;;;;-8.39;69.46;100149.84;4958687;28;20465;-85
2022/02/18 02:38:48;;;;;;;32.42;14.23;;;;;;;-8.26;69.11;100161.19;4961866;28;20054;-85
2022/02/18 02:41:15;;;;;;;37.85;14.88;;;;;;;-8.29;69.31;100156.84;4946977;28;20147;-83
2022/02/18 02:43:45;;;;;;;41.03;15.88;;;;;;;-8.22;69.15;100162.97;4950253;28;20039;-85
2022/02/18 02:46:11;;;;;;;44.90;15.55;;;;;;;-8.15;69.21;100155.25;4962037;28;20051;-84
2022/02/18 02:48:38;;;;;;;36.17;16.42;;;;;;;-8.11;69.28;100161.31;4957802;28;20051;-86
2022/02/18 02:51:18;;;;;;;47.25;17.40;;;;;;;-8.15;69.27;100155.25;4944121;28;20043;-87
2022/02/18 02:53:46;;;;;;;39.58;17.20;;;;;;;-8.04;69.17;100149.28;4961246;28;20047;-89
2022/02/18 02:56:12;;;;;;;34.10;14.25;;;;;;;-8.08;69.19;100136.28;4962680;28;20526;-90
2022/02/18 02:58:38;;;;;;;39.83;17.40;;;;;;;-7.94;69.57;100148.47;4945855;28;20109;-87
2022/02/18 03:01:05;;;;;;;38.30;16.27;;;;;;;-7.91;69.75;100153.69;4965043;28;20050;-87
2022/02/18 03:03:37;;;;;;;36.50;15.35;;;;;;;-7.89;69.74;100157.19;4964233;28;20093;-88
2022/02/18 03:06:04;;;;;;;35.45;15.02;;;;;;;-7.94;69.94;100149.34;4964916;28;20498;-89
2022/02/18 03:08:32;;;;;;;34.47;14.52;;;;;;;-7.89;70.08;100157.19;4964228;28;20053;-89
2022/02/18 03:11:15;;;;;;;22.60;11.90;;;;;;;-7.86;70.25;100163.25;4952076;28;20052;-88
2022/02/18 03:13:59;;;;;;;31.70;12.48;;;;;;;-7.89;70.30;100167.56;4967731;28;20054;-87
2022/02/18 03:16:25;;;;;;;34.95;15.32;;;;;;;-7.86;70.61;100168.44;4945699;28;20047;-84
2022/02/18 03:18:51;;;;;;;38.30;13.82;;;;;;;-7.79;70.12;100173.66;4945167;28;20105;-86
2022/02/18 03:21:17;;;;;;;28.35;13.52;;;;;;;-7.62;71.81;100161.69;4944876;28;20035;-85
2022/02/18 03:23:46;;;;;;;36.15;13.02;;;;;;;-7.55;71.06;100165.19;4961323;28;20065;-91
2022/02/18 03:26:16;;;;;;;23.48;11.50;;;;;;;-7.62;70.56;100159.97;4944996;28;20146;-85
2022/02/18 03:28:44;;;;;;;19.35;9.20;;;;;;;-7.53;70.21;100179.03;4960584;28;20078;-84
2022/02/18 03:31:29;;;;;;;26.52;13.25;;;;;;;-7.57;69.93;100175.56;4966300;28;20494;-88
2022/02/18 03:33:56;;;;;;;23.33;11.80;;;;;;;-7.48;69.72;100179.97;4976667;28;20055;-86
2022/02/18 03:36:22;;;;;;;19.85;10.82;;;;;;;-7.40;69.77;100183.47;4943935;28;20047;-85
2022/02/18 03:38:48;;;;;;;27.63;11.50;;;;;;;-7.34;69.80;100194.72;4959639;28;20145;-86
2022/02/18 03:41:14;;;;;;;19.88;11.05;;;;;;;-7.41;69.59;100179.09;4994730;28;20104;-90
2022/02/18 03:43:40;;;;;;;26.48;13.52;;;;;;;-7.29;69.56;100180.94;4947042;28;20140;-87
2022/02/18 03:46:24;;;;;;;27.75;12.13;;;;;;;-7.35;69.55;100173.97;4984997;28;20039;-81
2022/02/18 03:48:53;;;;;;;20.85;11.65;;;;;;;-7.35;69.65;100177.44;4960529;28;20044;-88
2022/02/18 03:51:19;;;;;;;28.73;12.13;;;;;;;-7.39;69.88;100190.38;5001204;28;20050;-84
2022/02/18 03:53:46;;;;;;;56.20;12.63;;;;;;;-7.39;70.15;100174.81;4976168;28;20070;-83
2022/02/18 03:56:17;;;;;;;23.67;11.63;;;;;;;-7.11;69.84;100189.69;4944320;28;20043;-84
2022/02/18 03:58:47;;;;;;;22.73;11.77;;;;;;;-7.02;69.34;100191.47;4975300;28;20063;-83
2022/02/18 04:01:13;;;;;;;21.30;11.73;;;;;;;-6.89;69.12;100181.97;4959725;28;20516;-86
2022/02/18 04:03:41;;;;;;;33.05;11.52;;;;;;;-6.89;68.75;100174.16;4959299;28;20083;-82
2022/02/18 04:06:26;;;;;;;26.90;12.77;;;;;;;-6.85;68.07;100179.38;4975571;28;20126;-85
2022/02/18 04:08:59;;;;;;;36.47;12.70;;;;;;;-6.94;67.54;100183.69;4944247;28;20043;-82
2022/02/18 04:11:43;;;;;;;27.23;14.25;;;;;;;-6.78;69.44;100184.63;4945439;28;20046;-85
2022/02/18 04:14:10;;;;;;;34.72;13.20;;;;;;;-6.62;68.61;100187.28;4943472;28;20152;-85
2022/02/18 04:16:37;;;;;;;28.02;15.05;;;;;;;-6.68;67.20;100165.59;4926510;28;20545;-84
2022/02/18 04:19:11;;;;;;;25.65;13.65;;;;;;;-6.71;67.00;100171.63;4940900;28;20109;-84
2022/02/18 04:21:47;;;;;;;36.50;14.48;;;;;;;-6.82;66.63;100169.88;4939745;29;20046;-86
2022/02/18 04:24:29;;;;;;;28.20;12.98;;;;;;;-7.06;66.93;100155.06;4926988;29;20407;-86
2022/02/18 04:26:56;;;;;;;27.80;14.25;;;;;;;-7.11;67.19;100171.50;4971381;28;20075;-85
2022/02/18 04:29:22;;;;;;;30.10;14.30;;;;;;;-7.17;67.16;100186.19;4941016;28;20059;-87
2022/02/18 04:31:48;;;;;;;35.25;15.88;;;;;;;-7.10;66.92;100185.38;4972422;28;20053;-82
2022/02/18 04:34:14;;;;;;;29.48;14.85;;;;;;;-7.04;67.15;100181.91;4955961;28;20376;-80
2022/02/18 04:36:40;;;;;;;37.97;15.93;;;;;;;-6.99;66.77;100180.22;4955287;28;20075;-82
2022/02/18 04:39:07;;;;;;;32.72;13.90;;;;;;;-6.96;66.90;100181.06;4939473;29;20070;-86
2022/02/18 04:41:33;;;;;;;27.80;14.10;;;;;;;-6.85;66.21;100187.19;4954939;28;20047;-83
2022/02/18 04:44:00;;;;;;;31.63;12.70;;;;;;;-6.87;65.94;100180.25;4956544;28;20043;-81
2022/02/18 04:46:26;;;;;;;23.52;12.38;;;;;;;-6.76;65.94;100191.56;4954677;29;20134;-79
2022/02/18 04:48:52;;;;;;;23.38;10.68;;;;;;;-6.83;65.25;100195.00;4954158;28;20140;-84
2022/02/18 04:51:18;;;;;;;27.95;12.52;;;;;;;-6.79;65.56;100194.16;4907285;29;20047;-86
2022/02/18 04:53:44;;;;;;;23.30;12.57;;;;;;;-6.82;65.57;100188.06;4922808;28;20046;-83
2022/02/18 04:56:10;;;;;;;29.40;14.15;;;;;;;-6.72;65.55;100177.72;4938352;29;20161;-82
2022/02/18 04:58:37;;;;;;;26.17;12.65;;;;;;;-6.75;64.91;100164.69;4918044;29;20107;-82
2022/02/18 05:01:09;;;;;;;29.00;13.25;;;;;;;-6.61;64.83;100188.16;4935621;29;20052;-81
2022/02/18 05:03:35;;;;;;;22.92;11.93;;;;;;;-6.54;64.79;100196.81;4947034;29;20050;-81
2022/02/18 05:06:02;;;;;;;22.70;11.32;;;;;;;-6.54;64.90;100199.41;4910686;29;20046;-80
2022/02/18 05:08:31;;;;;;;24.38;11.40;;;;;;;-6.52;64.47;100182.97;4939165;29;20047;-85
2022/02/18 05:10:57;;;;;;;24.73;12.63;;;;;;;-6.58;64.20;100161.25;4923101;29;20051;-85
2022/02/18 05:13:23;;;;;;;30.92;11.57;;;;;;;-6.58;64.48;100175.16;4954844;28;20053;-82
2022/02/18 05:15:49;;;;;;;36.55;13.65;;;;;;;-6.50;64.51;100181.25;4954092;29;20126;-84
2022/02/18 05:18:15;;;;;;;28.70;12.40;;;;;;;-6.60;64.36;100190.75;4955008;28;20074;-86
2022/02/18 05:20:42;;;;;;;22.27;11.90;;;;;;;-6.42;64.33;100183.88;4923359;28;20054;-85
2022/02/18 05:23:08;;;;;;;24.73;12.57;;;;;;;-6.25;64.32;100187.34;4940956;29;20046;-85
2022/02/18 05:25:34;;;;;;;25.67;12.38;;;;;;;-6.00;64.19;100183.03;4912518;29;20043;-84
2022/02/18 05:28:04;;;;;;;23.80;11.43;;;;;;;-5.86;63.77;100181.28;4960966;28;20047;-81
2022/02/18 05:30:34;;;;;;;20.38;10.18;;;;;;;-5.89;62.77;100176.06;4958231;28;20047;-81
2022/02/18 05:33:01;;;;;;;19.90;9.70;;;;;;;-5.72;62.99;100178.66;4955727;29;20051;-81
2022/02/18 05:35:27;;;;;;;19.00;7.85;;;;;;;-5.65;62.34;100185.59;4957355;28;20043;-82
2022/02/18 05:37:53;;;;;;;19.48;8.90;;;;;;;-5.62;62.06;100184.72;4926133;29;20043;-82
2022/02/18 05:40:19;;;;;;;16.63;9.00;;;;;;;-5.71;62.29;100183.00;4956992;28;20112;-82
2022/02/18 05:42:45;;;;;;;12.93;7.03;;;;;;;-5.60;62.07;100188.22;4955004;28;20058;-81
2022/02/18 05:45:13;;;;;;;16.85;9.00;;;;;;;-5.45;61.84;100197.75;4938488;29;20127;-80
2022/02/18 05:47:42;;;;;;;15.88;9.18;;;;;;;-5.39;61.28;100189.91;4969366;28;20043;-80
2022/02/18 05:50:09;;;;;;;22.25;10.13;;;;;;;-5.41;61.32;100178.63;4936818;28;20147;-79
2022/02/18 05:52:35;;;;;;;19.58;9.60;;;;;;;-5.41;61.25;100189.06;4906505;29;20039;-78
2022/02/18 05:55:05;;;;;;;19.13;9.55;;;;;;;-5.31;61.43;100177.72;4955215;28;20059;-80
2022/02/18 05:57:30;;;;;;;20.35;9.77;;;;;;;-4.87;61.22;100181.94;4945563;28;20086;-81
2022/02/18 05:59:56;;;;;;;18.92;10.27;;;;;;;-4.76;60.50;100161.88;4924929;28;20043;-80
2022/02/18 06:02:23;;;;;;;20.00;10.73;;;;;;;-4.45;60.95;100178.22;4924976;28;20478;-83
2022/02/18 06:04:49;;;;;;;14.13;7.80;;;;;;;-4.31;59.89;100183.38;4974315;28;20078;-83
2022/02/18 06:07:16;;;;;;;19.65;10.07;;;;;;;-4.44;59.50;100166.06;4956367;28;20043;-80
2022/02/18 06:09:42;;;;;;;21.20;11.23;;;;;;;-4.16;59.59;100183.28;4956262;28;20056;-78
2022/02/18 06:12:09;;;;;;;25.58;11.45;;;;;;;-4.04;58.84;100174.50;4973646;28;20506;-84
2022/02/18 06:14:35;;;;;;;16.88;9.18;;;;;;;-3.78;59.24;100174.28;4956879;28;20050;-80
2022/02/18 06:17:05;;;;;;;18.80;8.95;;;;;;;-3.52;58.20;100183.63;4972538;28;20149;-89
2022/02/18 06:19:35;;;;;;;18.02;10.20;;;;;;;-3.36;58.00;100172.16;4974015;28;20050;-84
2022/02/18 06:22:01;;;;;;;22.50;11.20;;;;;;;-3.21;57.71;100168.50;4925081;28;20042;-79
2022/02/18 06:24:27;;;;;;;34.00;11.10;;;;;;;-3.08;56.93;100182.34;4956856;28;20053;-83
2022/02/18 06:26:53;;;;;;;18.63;10.02;;;;;;;-2.97;56.84;100185.66;4958997;28;20512;-85
2022/02/18 06:29:19;;;;;;;17.85;10.45;;;;;;;-2.79;56.97;100181.97;4977902;28;20050;-81
2022/02/18 06:31:45;;;;;;;21.92;11.43;;;;;;;-2.81;55.75;100168.91;4977737;28;20070;-81
2022/02/18 06:34:11;;;;;;;18.42;8.98;;;;;;;-2.81;55.86;100176.75;4975701;28;20065;-79
2022/02/18 06:36:37;;;;;;;17.25;9.95;;;;;;;-2.84;55.74;100168.09;4977358;28;20495;-79
2022/02/18 06:39:03;;;;;;;18.60;8.85;;;;;;;-2.77;55.70;100168.00;4960187;28;20522;-80
2022/02/18 06:41:29;;;;;;;16.85;9.30;;;;;;;-2.55;55.34;100165.09;4943982;28;20050;-79
2022/02/18 06:43:56;;;;;;;17.95;9.20;;;;;;;-2.56;54.96;100160.72;4992134;28;20078;-78
2022/02/18 06:46:22;;;;;;;17.92;9.75;;;;;;;-2.53;55.28;100161.56;4959965;28;20418;-80
2022/02/18 06:48:48;;;;;;;16.60;9.20;;;;;;;-2.43;54.71;100167.53;4927683;28;20049;-79
2022/02/18 06:51:14;;;;;;;18.13;9.27;;;;;;;-2.48;54.61;100170.22;4960309;28;20070;-83
2022/02/18 06:53:40;;;;;;;17.77;9.45;;;;;;;-2.30;54.78;100165.59;4960363;28;20133;-81
2022/02/18 06:56:06;;;;;;;17.02;9.63;;;;;;;-2.13;55.15;100173.22;4959984;28;20418;-81
2022/02/18 06:58:33;;;;;;;18.27;9.82;;;;;;;-2.00;54.23;100156.41;4994554;28;20502;-84
2022/02/18 07:00:59;;;;;;;20.38;8.57;;;;;;;-1.96;53.42;100168.56;4980190;28;20387;-84
2022/02/18 07:03:25;;;;;;;16.80;9.57;;;;;;;-1.83;53.59;100164.88;4931802;28;20046;-86
2022/02/18 07:05:51;;;;;;;19.42;8.63;;;;;;;-1.83;53.19;100164.88;4996813;28;20528;-83
2022/02/18 07:08:17;;;;;;;16.88;9.88;;;;;;;-1.79;53.45;100157.84;4963389;28;20050;-80
2022/02/18 07:10:43;;;;;;;21.33;9.48;;;;;;;-1.79;53.19;100156.06;4979301;28;20080;-79
2022/02/18 07:13:09;;;;;;;17.33;9.15;;;;;;;-1.53;53.38;100163.50;4978955;28;20042;-85
2022/02/18 07:15:35;;;;;;;15.18;9.23;;;;;;;-1.50;52.21;100163.44;4997526;28;20116;-86
2022/02/18 07:18:02;;;;;;;16.90;9.13;;;;;;;-1.48;52.59;100164.25;4966404;28;20042;-89
2022/02/18 07:20:28;;;;;;;15.27;8.32;;;;;;;-1.63;53.03;100168.91;4975457;28;20042;-81
2022/02/18 07:22:54;;;;;;;13.43;8.40;;;;;;;-1.48;52.32;100166.03;4970032;28;20039;-87
2022/02/18 07:25:20;;;;;;;15.63;9.60;;;;;;;-1.53;52.41;100162.63;4965459;28;20573;-87
2022/02/18 07:27:46;;;;;;;14.55;8.38;;;;;;;-1.66;52.31;100176.81;4980382;28;20132;-84
2022/02/18 07:30:14;;;;;;;17.20;9.88;;;;;;;-1.61;52.32;100175.00;4952105;28;20141;-85
2022/02/18 07:32:40;;;;;;;13.95;8.05;;;;;;;-1.89;52.78;100170.22;4994716;28;20053;-83
2022/02/18 07:35:07;;;;;;;15.60;8.98;;;;;;;-1.84;52.67;100173.63;4988672;28;20444;-85
2022/02/18 07:37:34;;;;;;;15.68;8.90;;;;;;;-1.94;52.88;100172.03;4982932;28;20054;-85
2022/02/18 07:40:00;;;;;;;14.93;8.73;;;;;;;-2.12;53.11;100169.72;4947810;28;20046;-89
2022/02/18 07:42:26;;;;;;;19.30;8.52;;;;;;;-2.23;53.37;100178.59;4962793;28;20068;-80
2022/02/18 07:44:52;;;;;;;17.25;8.32;;;;;;;-2.22;53.29;100190.81;4946915;28;20042;-87
2022/02/18 07:47:18;;;;;;;15.63;9.23;;;;;;;-2.13;53.86;100181.09;4978350;28;20494;-81
2022/02/18 07:49:44;;;;;;;16.27;8.85;;;;;;;-2.11;53.39;100179.28;4995541;28;20069;-86
2022/02/18 07:52:10;;;;;;;17.65;8.52;;;;;;;-1.96;53.69;100171.19;4978343;28;20038;-82
2022/02/18 07:54:37;;;;;;;17.35;8.88;;;;;;;-1.91;53.08;100187.72;4963369;28;20081;-80
2022/02/18 07:57:04;;;;;;;17.85;9.52;;;;;;;-1.82;52.73;100184.94;4978405;28;20066;-81
2022/02/18 07:59:30;;;;;;;21.38;11.40;;;;;;;-1.85;52.75;100182.38;4979150;28;20042;-81
2022/02/18 08:01:56;;;;;;;25.33;11.18;;;;;;;-1.58;53.07;100182.78;4979876;28;20050;-84
2022/02/18 08:04:22;;;;;;;31.15;13.90;;;;;;;-1.66;52.88;100182.94;4962502;28;20057;-82
2022/02/18 08:06:48;;;;;;;25.10;12.27;;;;;;;-1.48;52.10;100173.88;4962612;28;20048;-81
2022/02/18 08:09:14;;;;;;;22.83;12.00;;;;;;;-1.32;52.76;100182.34;4946738;28;20038;-81
2022/02/18 08:11:40;;;;;;;29.20;14.23;;;;;;;-1.28;52.23;100170.91;4978412;28;20050;-80
2022/02/18 08:14:06;;;;;;;29.30;14.13;;;;;;;-1.02;52.26;100175.66;4963205;28;20046;-82
2022/02/18 08:16:33;;;;;;;27.30;12.63;;;;;;;-0.65;52.03;100165.28;4981437;28;20092;-79
2022/02/18 08:19:00;;;;;;;34.78;12.65;;;;;;;-0.54;51.35;100167.69;4988453;28;20038;-80
2022/02/18 08:21:26;;;;;;;23.23;11.75;;;;;;;-0.39;50.45;100169.97;4991230;28;20553;-80
2022/02/18 08:23:52;;;;;;;18.58;10.18;;;;;;;-0.28;50.16;100160.09;4975729;28;20046;-81
2022/02/18 08:26:20;;;;;;;13.93;8.75;;;;;;;-0.01;49.96;100157.72;4994517;28;20047;-80
2022/02/18 08:28:48;;;;;;;17.42;8.85;;;;;;;0.04;49.53;100154.97;4977496;28;20064;-82
2022/02/18 08:31:14;;;;;;;15.60;8.75;;;;;;;0.07;49.49;100150.50;4966090;28;20050;-82
2022/02/18 08:33:41;;;;;;;11.38;7.07;;;;;;;0.18;49.13;100148.47;4947869;28;20072;-80
2022/02/18 08:36:07;;;;;;;14.75;8.43;;;;;;;0.40;49.54;100140.91;4996128;28;20042;-83
2022/02/18 08:38:34;;;;;;;17.42;9.43;;;;;;;0.59;49.62;100146.56;4963048;28;20066;-81
2022/02/18 08:41:00;;;;;;;18.70;9.18;;;;;;;0.92;49.40;100146.56;4962328;28;20580;-85
2022/02/18 08:43:26;;;;;;;12.70;8.00;;;;;;;0.52;49.23;100142.34;4946789;28;20046;-84
2022/02/18 08:45:52;;;;;;;17.75;8.77;;;;;;;0.28;49.67;100135.13;4995641;28;20508;-82
2022/02/18 08:48:18;;;;;;;18.13;9.30;;;;;;;0.04;50.16;100145.34;4994776;28;20050;-84
2022/02/18 08:50:44;;;;;;;21.38;10.95;;;;;;;-0.02;50.74;100134.97;4945656;28;20513;-82
2022/02/18 08:53:10;;;;;;;22.30;10.75;;;;;;;0.07;51.01;100126.84;4961523;28;20130;-83
2022/02/18 08:55:36;;;;;;;23.42;11.52;;;;;;;0.21;51.23;100116.00;4977210;28;20082;-83
2022/02/18 08:58:02;;;;;;;25.42;12.55;;;;;;;0.19;51.14;100109.94;4977919;28;20391;-82
2022/02/18 09:00:29;;;;;;;34.30;15.25;;;;;;;-0.11;52.56;100122.06;4961849;28;20042;-82
2022/02/18 09:02:55;;;;;;;35.03;15.23;;;;;;;-0.03;52.49;100112.22;4977917;28;20137;-82
2022/02/18 09:05:21;;;;;;;28.52;13.90;;;;;;;0.08;52.38;100120.72;4977539;28;20034;-82
2022/02/18 09:07:47;;;;;;;30.48;13.80;;;;;;;0.20;52.59;100125.66;4994734;28;20054;-85
2022/02/18 09:10:13;;;;;;;30.38;15.18;;;;;;;0.15;52.78;100143.31;4961401;28;20545;-84
2022/02/18 09:12:40;;;;;;;30.73;16.08;;;;;;;0.00;53.56;100143.69;4961753;28;20096;-84
2022/02/18 09:15:07;;;;;;;36.63;17.70;;;;;;;-0.04;53.56;100142.00;4994457;28;20042;-83
2022/02/18 09:17:42;;;;;;;47.03;19.30;;;;;;;0.13;53.14;100142.47;4963257;28;20087;-84
2022/02/18 09:20:10;;;;;;;48.50;19.65;;;;;;;0.23;52.89;100141.34;4977561;28;20054;-82
2022/02/18 09:22:36;;;;;;;45.95;22.42;;;;;;;-0.05;53.26;100150.81;4979079;28;20038;-81
2022/02/18 09:25:02;;;;;;;43.28;20.90;;;;;;;-0.05;53.99;100138.53;5006087;28;20072;-82
2022/02/18 09:27:29;;;;;;;41.25;19.70;;;;;;;0.22;53.34;100144.84;4978901;28;20053;-80
2022/02/18 09:29:57;;;;;;;44.58;19.60;;;;;;;0.03;54.20;100146.22;4991933;28;20058;-82
2022/02/18 09:32:23;;;;;;;42.67;20.65;;;;;;;-0.15;54.32;100151.91;5010258;28;20042;-80
2022/02/18 09:34:49;;;;;;;42.30;21.02;;;;;;;-0.15;54.69;100149.28;4952001;28;20073;-81
2022/02/18 09:37:16;;;;;;;38.70;19.20;;;;;;;-0.10;54.56;100150.06;4980135;28;20050;-82
2022/02/18 09:39:43;;;;;;;49.22;20.65;;;;;;;-0.07;54.38;100147.38;4962458;28;20532;-81
2022/02/18 09:42:13;;;;;;;41.83;21.02;;;;;;;0.01;54.56;100155.91;4962652;28;20046;-83
2022/02/18 09:44:41;;;;;;;43.50;19.88;;;;;;;-0.12;54.36;100150.06;4961993;28;20053;-82
2022/02/18 09:47:08;;;;;;;39.65;18.35;;;;;;;-0.11;54.67;100148.34;4962076;28;20054;-83
2022/02/18 09:49:34;;;;;;;49.33;19.23;;;;;;;-0.14;55.15;100154.53;4961018;28;20422;-82
2022/02/18 09:52:01;;;;;;;36.60;18.05;;;;;;;-0.06;54.99;100159.59;4945102;28;20116;-84
2022/02/18 09:54:27;;;;;;;42.78;17.35;;;;;;;-0.09;55.01;100157.91;4944831;28;20417;-82
2022/02/18 09:56:53;;;;;;;37.00;16.83;;;;;;;0.08;55.07;100146.13;4976307;28;20058;-82
2022/02/18 09:59:19;;;;;;;37.05;17.67;;;;;;;0.22;54.64;100150.13;4976516;28;20489;-82
2022/02/18 10:01:46;;;;;;;40.83;17.98;;;;;;;0.40;54.90;100150.56;4944619;28;20054;-81
2022/02/18 10:04:12;;;;;;;38.17;19.02;;;;;;;0.44;54.65;100152.22;4961115;28;20057;-79
2022/02/18 10:06:41;;;;;;;45.85;19.58;;;;;;;0.41;54.90;100150.50;4992859;28;20039;-81
2022/02/18 10:09:07;;;;;;;74.57;26.92;;;;;;;0.47;55.06;100145.09;4961396;28;20100;-80
2022/02/18 10:11:51;;;;;;;76.07;26.98;;;;;;;0.56;54.86;100144.00;4976388;28;20179;-80
2022/02/18 10:14:17;;;;;;;73.47;28.45;;;;;;;0.59;55.05;100149.19;4944473;28;20057;-81
2022/02/18 10:16:43;;;;;;;77.90;29.30;;;;;;;0.67;55.14;100131.41;4993724;28;20045;-79
2022/02/18 10:19:13;;;;;;;80.72;30.60;;;;;;;0.56;55.21;100128.22;4959254;28;20058;-81
2022/02/18 10:21:45;;;;;;;83.70;32.95;;;;;;;0.46;55.92;100142.53;4961729;28;20054;-82
2022/02/18 10:24:18;;;;;;;80.50;31.15;;;;;;;0.51;55.73;100135.38;4976940;28;20132;-81
2022/02/18 10:26:46;;;;;;;89.85;34.92;;;;;;;0.71;55.85;100132.19;4976517;28;20413;-79
2022/02/18 10:29:22;;;;;;;81.70;34.28;;;;;;;1.09;55.06;100127.63;4961388;28;20137;-80
2022/02/18 10:32:11;;;;;;;69.53;30.08;;;;;;;0.90;54.96;100127.28;4976333;28;20046;-80
2022/02/18 10:34:56;;;;;;;65.72;30.42;;;;;;;0.91;55.48;100132.53;4992834;28;20088;-79
2022/02/18 10:37:24;;;;;;;42.30;21.55;;;;;;;1.01;54.73;100124.38;4993434;28;20054;-80
2022/02/18 10:39:50;;;;;;;44.22;21.33;;;;;;;0.88;54.48;100118.59;4976174;28;20134;-79
2022/02/18 10:42:16;;;;;;;41.78;21.58;;;;;;;1.18;54.23;100128.25;4960785;28;20078;-82
2022/02/18 10:44:43;;;;;;;34.33;19.02;;;;;;;0.93;55.03;100129.84;4968551;28;20065;-81
2022/02/18 10:47:20;;;;;;;39.03;19.33;;;;;;;0.83;55.24;100125.72;4967850;28;20047;-81
2022/02/18 10:49:46;;;;;;;33.30;16.73;;;;;;;0.92;54.74;100121.09;4970182;28;20524;-80
2022/02/18 10:52:13;;;;;;;40.45;17.63;;;;;;;1.09;54.52;100115.38;4966520;28;20125;-80
2022/02/18 10:54:39;;;;;;;36.65;18.77;;;;;;;1.44;54.25;100118.72;4957902;28;20108;-81
2022/02/18 10:57:15;;;;;;;36.13;18.25;;;;;;;1.92;53.02;100097.00;4956374;28;20067;-80
2022/02/18 10:59:41;;;;;;;43.00;19.60;;;;;;;2.21;52.49;100095.16;4960161;28;20047;-81
2022/02/18 11:02:07;;;;;;;41.38;20.45;;;;;;;2.54;51.69;100088.72;4976179;28;20042;-85
2022/02/18 11:04:34;;;;;;;44.95;20.73;;;;;;;2.99;50.74;100087.13;4960172;28;20069;-79
2022/02/18 11:07:13;;;;;;;37.53;19.27;;;;;;;3.15;49.28;100085.63;4960072;28;20533;-80
2022/02/18 11:09:43;;;;;;;38.72;18.52;;;;;;;2.91;49.61;100092.69;4943720;28;20128;-79
2022/02/18 11:12:12;;;;;;;34.83;17.73;;;;;;;2.88;49.35;100087.50;5002703;28;20106;-80
2022/02/18 11:14:45;;;;;;;35.47;19.65;;;;;;;2.73;49.87;100090.72;4976257;28;20046;-80
2022/02/18 11:17:13;;;;;;;50.03;22.63;;;;;;;2.88;50.70;100095.44;4976507;28;20070;-79